createdAt,value
2023-08-12T00:00:22.616Z,2.03
2023-08-12T00:01:26.314Z,2.17
2023-08-12T00:02:28.707Z,2.30
2023-08-12T00:04:33.077Z,2.05
2023-08-12T00:05:36.995Z,1.90
2023-08-12T00:06:38.884Z,2.10
2023-08-12T00:07:44.130Z,2.05
2023-08-12T00:08:46.104Z,2.25
2023-08-12T00:09:48.021Z,2.00
2023-08-12T00:10:50.140Z,1.90
2023-08-12T00:11:52.158Z,2.13
2023-08-12T00:12:54.136Z,2.13
2023-08-12T00:13:56.062Z,2.40
2023-08-12T00:14:58.057Z,1.75
2023-08-12T00:16:00.166Z,2.40
2023-08-12T00:17:02.185Z,1.92
2023-08-12T00:18:08.020Z,2.15
2023-08-12T00:19:10.070Z,1.60
2023-08-12T00:20:13.771Z,1.95
2023-08-12T00:21:16.540Z,1.70
2023-08-12T00:22:18.676Z,2.15
2023-08-12T00:23:20.920Z,1.90
2023-08-12T00:24:22.962Z,1.77
2023-08-12T00:25:25.008Z,2.35
2023-08-12T00:26:28.189Z,2.20
2023-08-12T00:27:30.125Z,1.80
2023-08-12T00:28:32.205Z,1.92
2023-08-12T00:29:34.574Z,1.70
2023-08-12T00:31:38.846Z,2.10
2023-08-12T00:32:42.251Z,2.00
2023-08-12T00:33:44.238Z,1.80
2023-08-12T00:34:46.145Z,2.35
2023-08-12T00:35:48.057Z,2.15
2023-08-12T00:36:50.084Z,2.00
2023-08-12T00:37:52.336Z,1.80
2023-08-12T00:38:54.496Z,2.38
2023-08-12T00:39:56.512Z,2.20
2023-08-12T00:40:59.439Z,1.95
2023-08-12T00:42:01.502Z,1.95
2023-08-12T00:43:04.733Z,2.13
2023-08-12T00:44:06.787Z,1.95
2023-08-12T00:45:14.371Z,2.42
2023-08-12T00:46:16.702Z,2.10
2023-08-12T00:47:18.946Z,1.95
2023-08-12T00:48:21.031Z,2.00
2023-08-12T00:49:25.320Z,1.92
2023-08-12T00:50:27.450Z,2.13
2023-08-12T00:51:29.825Z,1.83
2023-08-12T00:53:33.679Z,1.98
2023-08-12T00:54:35.744Z,2.08
2023-08-12T00:55:37.756Z,2.03
2023-08-12T00:56:39.811Z,2.20
2023-08-12T00:57:41.934Z,1.70
2023-08-12T00:58:44.766Z,2.15
2023-08-12T00:59:46.810Z,2.10
2023-08-12T01:00:48.818Z,2.00
2023-08-12T01:01:51.604Z,1.90
2023-08-12T01:02:55.325Z,1.63
2023-08-12T01:03:58.569Z,2.33
2023-08-12T01:05:00.790Z,1.48
2023-08-12T01:06:04.061Z,1.88
2023-08-12T01:07:05.989Z,2.13
2023-08-12T01:08:08.669Z,1.92
2023-08-12T01:09:11.137Z,1.92
2023-08-12T01:10:16.712Z,1.80
2023-08-12T01:11:37.099Z,2.47
2023-08-12T01:12:46.215Z,2.55
2023-08-12T01:14:00.238Z,1.77
2023-08-12T01:15:18.876Z,1.83
2023-08-12T01:16:23.437Z,1.92
2023-08-12T01:17:30.274Z,1.85
2023-08-12T01:18:33.100Z,2.20
2023-08-12T01:19:37.898Z,2.17
2023-08-12T01:20:40.434Z,1.85
2023-08-12T01:21:47.437Z,2.03
2023-08-12T01:22:51.511Z,1.92
2023-08-12T01:23:53.792Z,1.83
2023-08-12T01:25:58.520Z,1.90
2023-08-12T01:27:00.783Z,2.38
2023-08-12T01:29:04.968Z,2.05
2023-08-12T01:31:16.559Z,2.35
2023-08-12T01:32:32.567Z,2.00
2023-08-12T01:33:43.651Z,2.40
2023-08-12T01:34:57.995Z,2.08
2023-08-12T01:36:14.601Z,2.08
2023-08-12T01:37:26.078Z,2.22
2023-08-12T01:38:29.816Z,2.35
2023-08-12T01:39:34.929Z,2.33
2023-08-12T01:40:41.405Z,2.15
2023-08-12T01:41:43.396Z,2.42
2023-08-12T01:42:47.332Z,2.00
2023-08-12T01:43:49.768Z,2.20
2023-08-12T01:44:51.892Z,2.33
2023-08-12T01:45:57.057Z,2.30
2023-08-12T01:47:00.924Z,1.95
2023-08-12T01:48:03.886Z,1.80
2023-08-12T01:49:06.015Z,1.92
2023-08-12T01:50:08.062Z,1.88
2023-08-12T01:51:10.065Z,1.85
2023-08-12T01:52:12.451Z,2.28
2023-08-12T01:54:16.232Z,2.03
2023-08-12T01:55:18.143Z,2.10
2023-08-12T01:56:20.062Z,2.22
2023-08-12T01:57:22.223Z,2.03
2023-08-12T01:58:24.116Z,2.03
2023-08-12T01:59:26.101Z,2.20
2023-08-12T02:00:28.115Z,1.90
2023-08-12T02:01:30.196Z,2.10
2023-08-12T02:02:32.274Z,2.10
2023-08-12T02:03:34.492Z,2.38
2023-08-12T02:05:40.445Z,2.22
2023-08-12T02:06:42.451Z,2.17
2023-08-12T02:07:44.817Z,2.30
2023-08-12T02:09:48.773Z,1.70
2023-08-12T02:10:50.650Z,1.90
2023-08-12T02:11:52.588Z,2.00
2023-08-12T02:12:54.529Z,2.22
2023-08-12T02:13:56.658Z,2.25
2023-08-12T02:14:58.654Z,2.25
2023-08-12T02:16:00.586Z,2.00
2023-08-12T02:17:03.056Z,2.45
2023-08-12T02:19:07.147Z,2.22
2023-08-12T02:20:09.277Z,2.15
2023-08-12T02:21:11.260Z,2.17
2023-08-12T02:22:13.227Z,2.10
2023-08-12T02:23:15.595Z,1.83
2023-08-12T02:25:19.627Z,1.83
2023-08-12T02:26:21.767Z,2.08
2023-08-12T02:27:23.745Z,2.40
2023-08-12T02:28:25.799Z,2.05
2023-08-12T02:29:28.095Z,1.58
2023-08-12T02:31:32.468Z,2.00
2023-08-12T02:32:34.579Z,1.77
2023-08-12T02:33:36.554Z,1.80
2023-08-12T02:34:38.568Z,2.10
2023-08-12T02:35:40.514Z,1.77
2023-08-12T02:36:42.413Z,1.92
2023-08-12T02:37:44.292Z,1.73
2023-08-12T02:38:46.193Z,1.95
2023-08-12T02:39:48.637Z,1.77
2023-08-12T02:40:51.430Z,2.00
2023-08-12T02:41:53.485Z,2.00
2023-08-12T02:42:55.411Z,1.80
2023-08-12T02:43:57.413Z,2.10
2023-08-12T02:45:01.280Z,1.67
2023-08-12T02:46:03.500Z,1.63
2023-08-12T02:47:05.653Z,1.77
2023-08-12T02:48:07.996Z,1.83
2023-08-12T02:50:11.966Z,1.70
2023-08-12T02:51:15.082Z,2.20
2023-08-12T02:52:16.977Z,1.67
2023-08-12T02:53:18.920Z,1.80
2023-08-12T02:54:20.804Z,1.58
2023-08-12T02:55:22.760Z,2.10
2023-08-12T02:56:24.825Z,2.13
2023-08-12T02:57:27.054Z,1.83
2023-08-12T02:58:29.096Z,2.47
2023-08-12T02:59:31.544Z,2.13
2023-08-12T03:00:33.533Z,1.80
2023-08-12T03:01:35.540Z,2.08
2023-08-12T03:02:37.586Z,1.80
2023-08-12T03:03:39.534Z,1.70
2023-08-12T03:04:41.442Z,1.90
2023-08-12T03:05:46.717Z,1.70
2023-08-12T03:06:48.663Z,1.80
2023-08-12T03:07:52.970Z,1.85
2023-08-12T03:08:54.962Z,1.80
2023-08-12T03:09:56.899Z,2.00
2023-08-12T03:11:03.495Z,1.90
2023-08-12T03:12:06.105Z,2.00
2023-08-12T03:13:08.160Z,2.00
2023-08-12T03:14:10.853Z,2.15
2023-08-12T03:15:12.977Z,1.80
2023-08-12T03:16:15.609Z,2.33
2023-08-12T03:17:17.781Z,1.73
2023-08-12T03:18:19.692Z,2.03
2023-08-12T03:19:21.554Z,2.20
2023-08-12T03:20:24.338Z,1.80
2023-08-12T03:21:26.293Z,2.10
2023-08-12T03:22:31.438Z,1.58
2023-08-12T03:23:33.408Z,1.85
2023-08-12T03:24:35.490Z,2.08
2023-08-12T03:25:37.364Z,1.92
2023-08-12T03:26:39.295Z,2.08
2023-08-12T03:27:41.749Z,1.95
2023-08-12T03:28:43.615Z,1.85
2023-08-12T03:29:45.557Z,2.13
2023-08-12T03:30:54.622Z,1.50
2023-08-12T03:31:56.874Z,1.85
2023-08-12T03:32:59.061Z,2.03
2023-08-12T03:34:02.039Z,1.92
2023-08-12T03:35:05.251Z,1.85
2023-08-12T03:36:07.726Z,2.10
2023-08-12T03:37:10.109Z,2.17
2023-08-12T03:38:12.164Z,1.55
2023-08-12T03:39:14.499Z,2.10
2023-08-12T03:40:16.458Z,1.80
2023-08-12T03:41:18.430Z,1.90
2023-08-12T03:42:20.536Z,1.90
2023-08-12T03:43:22.451Z,1.85
2023-08-12T03:44:24.450Z,1.98
2023-08-12T03:45:26.513Z,1.80
2023-08-12T03:46:28.510Z,1.77
2023-08-12T03:47:30.490Z,1.88
2023-08-12T03:48:33.112Z,1.80
2023-08-12T03:49:35.076Z,1.65
2023-08-12T03:50:38.508Z,1.63
2023-08-12T03:51:40.759Z,1.83
2023-08-12T03:52:42.745Z,1.88
2023-08-12T03:53:44.821Z,2.10
2023-08-12T03:54:46.710Z,1.73
2023-08-12T03:55:48.623Z,1.63
2023-08-12T03:56:50.691Z,1.65
2023-08-12T03:57:53.352Z,1.85
2023-08-12T03:58:55.294Z,2.03
2023-08-12T03:59:57.337Z,1.65
2023-08-12T04:00:59.265Z,1.40
2023-08-12T04:02:01.449Z,1.63
2023-08-12T04:03:03.794Z,1.85
2023-08-12T04:04:06.118Z,1.55
2023-08-12T04:05:08.461Z,1.60
2023-08-12T04:07:12.423Z,1.83
2023-08-12T04:09:16.698Z,1.92
2023-08-12T04:10:18.728Z,1.60
2023-08-12T04:11:20.714Z,1.60
2023-08-12T04:12:22.803Z,1.85
2023-08-12T04:13:24.777Z,1.70
2023-08-12T04:14:26.785Z,1.98
2023-08-12T04:15:29.154Z,1.65
2023-08-12T04:17:33.772Z,2.05
2023-08-12T04:18:35.856Z,1.63
2023-08-12T04:19:37.771Z,1.77
2023-08-12T04:20:40.453Z,1.52
2023-08-12T04:21:42.473Z,1.80
2023-08-12T04:22:45.835Z,1.92
2023-08-12T04:23:49.037Z,1.55
2023-08-12T04:24:50.997Z,1.38
2023-08-12T04:25:55.577Z,2.00
2023-08-12T04:26:57.515Z,1.90
2023-08-12T04:27:59.757Z,1.70
2023-08-12T04:29:01.702Z,1.70
2023-08-12T04:30:03.955Z,1.40
2023-08-12T04:31:11.564Z,1.65
2023-08-12T04:32:13.682Z,1.67
2023-08-12T04:33:15.818Z,1.70
2023-08-12T04:34:18.105Z,1.67
2023-08-12T04:35:19.946Z,2.20
2023-08-12T04:36:22.210Z,1.70
2023-08-12T04:37:25.534Z,1.67
2023-08-12T04:38:28.815Z,1.75
2023-08-12T04:39:30.826Z,1.80
2023-08-12T04:40:34.067Z,1.70
2023-08-12T04:41:35.991Z,1.95
2023-08-12T04:42:37.958Z,1.90
2023-08-12T04:43:39.899Z,1.88
2023-08-12T04:44:41.858Z,1.63
2023-08-12T04:45:47.907Z,1.70
2023-08-12T04:46:49.792Z,2.30
2023-08-12T04:47:51.817Z,1.50
2023-08-12T04:48:53.769Z,2.13
2023-08-12T04:49:55.959Z,1.50
2023-08-12T04:51:01.509Z,1.70
2023-08-12T04:52:03.457Z,1.95
2023-08-12T04:53:06.904Z,1.70
2023-08-12T04:54:09.260Z,1.73
2023-08-12T04:56:16.350Z,1.92
2023-08-12T04:57:18.307Z,1.88
2023-08-12T04:58:20.195Z,1.63
2023-08-12T04:59:22.167Z,1.65
2023-08-12T05:00:24.863Z,1.52
2023-08-12T05:01:26.999Z,1.55
2023-08-12T05:02:29.091Z,2.22
2023-08-12T05:03:31.232Z,1.52
2023-08-12T05:04:33.205Z,1.42
2023-08-12T05:05:35.120Z,1.52
2023-08-12T05:06:37.191Z,1.70
2023-08-12T05:07:41.081Z,1.83
2023-08-12T05:08:43.266Z,1.60
2023-08-12T05:09:45.426Z,1.45
2023-08-12T05:10:51.064Z,1.38
2023-08-12T05:11:53.315Z,1.65
2023-08-12T05:12:56.231Z,1.52
2023-08-12T05:13:58.177Z,1.70
2023-08-12T05:15:00.290Z,1.55
2023-08-12T05:16:02.392Z,1.65
2023-08-12T05:17:04.846Z,2.45
2023-08-12T05:18:07.371Z,1.70
2023-08-12T05:19:09.274Z,1.27
2023-08-12T05:20:12.206Z,1.63
2023-08-12T05:21:14.278Z,1.50
2023-08-12T05:22:17.347Z,1.48
2023-08-12T05:23:19.332Z,1.48
2023-08-12T05:24:25.977Z,1.45
2023-08-12T05:25:27.950Z,1.50
2023-08-12T05:27:49.145Z,1.30
2023-08-12T05:28:51.452Z,1.70
2023-08-12T05:30:56.700Z,1.40
2023-08-12T05:31:58.661Z,1.35
2023-08-12T05:33:00.719Z,1.77
2023-08-12T05:34:02.751Z,1.40
2023-08-12T05:35:04.891Z,1.33
2023-08-12T05:36:06.861Z,1.30
2023-08-12T05:37:09.340Z,2.38
2023-08-12T05:38:11.657Z,1.55
2023-08-12T05:40:15.467Z,1.70
2023-08-12T05:41:17.425Z,1.48
2023-08-12T05:42:19.430Z,1.40
2023-08-12T05:43:21.465Z,1.50
2023-08-12T05:44:23.392Z,1.50
2023-08-12T05:45:28.460Z,1.75
2023-08-12T05:46:30.409Z,1.65
2023-08-12T05:47:33.856Z,1.70
2023-08-12T05:48:35.888Z,1.85
2023-08-12T05:49:37.920Z,1.52
2023-08-12T05:50:39.871Z,1.55
2023-08-12T05:51:42.708Z,1.75
2023-08-12T05:52:45.452Z,1.70
2023-08-12T05:53:47.634Z,1.60
2023-08-12T05:54:49.535Z,1.60
2023-08-12T05:55:51.589Z,1.60
2023-08-12T05:56:53.612Z,1.50
2023-08-12T05:57:55.526Z,1.50
2023-08-12T05:58:57.472Z,1.40
2023-08-12T05:59:59.515Z,1.85
2023-08-12T06:01:01.760Z,1.67
2023-08-12T06:03:05.718Z,1.63
2023-08-12T06:04:07.646Z,1.35
2023-08-12T06:05:10.008Z,1.80
2023-08-12T06:07:13.833Z,1.73
2023-08-12T06:08:15.941Z,1.20
2023-08-12T06:09:17.940Z,1.33
2023-08-12T06:10:19.860Z,1.52
2023-08-12T06:11:21.981Z,1.70
2023-08-12T06:12:23.952Z,1.63
2023-08-12T06:13:25.841Z,1.42
2023-08-12T06:14:27.691Z,1.50
2023-08-12T06:15:29.789Z,1.58
2023-08-12T06:16:31.760Z,1.55
2023-08-12T06:17:33.720Z,1.70
2023-08-12T06:18:35.652Z,1.30
2023-08-12T06:19:37.645Z,1.77
2023-08-12T06:20:39.584Z,1.48
2023-08-12T06:21:41.685Z,1.73
2023-08-12T06:22:43.643Z,1.63
2023-08-12T06:23:45.644Z,1.35
2023-08-12T06:24:47.574Z,1.35
2023-08-12T06:25:49.628Z,1.60
2023-08-12T06:26:51.755Z,1.50
2023-08-12T06:27:53.784Z,1.38
2023-08-12T06:28:55.776Z,1.50
2023-08-12T06:29:57.630Z,1.50
2023-08-12T06:30:59.868Z,1.52
2023-08-12T06:32:01.826Z,1.42
2023-08-12T06:33:03.895Z,1.38
2023-08-12T06:34:05.967Z,1.40
2023-08-12T06:35:08.362Z,1.70
2023-08-12T06:37:11.982Z,1.48
2023-08-12T06:38:14.889Z,1.58
2023-08-12T06:39:17.016Z,1.25
2023-08-12T06:40:18.973Z,1.60
2023-08-12T06:41:20.858Z,1.48
2023-08-12T06:42:24.149Z,1.58
2023-08-12T06:43:28.425Z,1.58
2023-08-12T06:44:32.033Z,1.50
2023-08-12T06:45:34.202Z,1.35
2023-08-12T06:46:36.181Z,1.02
2023-08-12T06:47:38.650Z,1.40
2023-08-12T06:48:40.638Z,1.40
2023-08-12T06:49:42.523Z,1.20
2023-08-12T06:50:45.097Z,1.40
2023-08-12T06:51:47.132Z,1.30
2023-08-12T06:52:49.054Z,1.52
2023-08-12T06:53:50.974Z,1.48
2023-08-12T06:54:52.949Z,1.40
2023-08-12T06:55:55.588Z,1.25
2023-08-12T06:56:57.595Z,1.33
2023-08-12T06:57:59.470Z,1.50
2023-08-12T06:59:01.384Z,1.08
2023-08-12T07:00:04.380Z,1.30
2023-08-12T07:01:06.440Z,1.27
2023-08-12T07:02:08.933Z,1.38
2023-08-12T07:03:11.091Z,1.30
2023-08-12T07:05:15.114Z,1.25
2023-08-12T07:06:17.074Z,1.38
2023-08-12T07:07:19.089Z,1.30
2023-08-12T07:08:21.040Z,1.30
2023-08-12T07:09:23.018Z,1.23
2023-08-12T07:10:25.772Z,1.33
2023-08-12T07:11:28.725Z,1.25
2023-08-12T07:12:30.790Z,1.15
2023-08-12T07:13:32.938Z,1.30
2023-08-12T07:14:34.914Z,1.40
2023-08-12T07:15:37.207Z,1.23
2023-08-12T07:17:41.329Z,1.20
2023-08-12T07:19:45.182Z,1.10
2023-08-12T07:20:47.207Z,1.20
2023-08-12T07:21:49.170Z,1.40
2023-08-12T07:22:51.229Z,1.30
2023-08-12T07:24:03.231Z,1.08
2023-08-12T07:25:06.598Z,1.02
2023-08-12T07:26:08.766Z,1.33
2023-08-12T07:27:10.728Z,1.00
2023-08-12T07:28:13.270Z,1.25
2023-08-12T07:29:15.367Z,1.30
2023-08-12T07:30:17.356Z,1.30
2023-08-12T07:31:19.611Z,1.20
2023-08-12T07:32:22.790Z,1.23
2023-08-12T07:33:26.036Z,1.02
2023-08-12T07:34:30.242Z,1.10
2023-08-12T07:35:33.569Z,1.10
2023-08-12T07:36:35.516Z,1.10
2023-08-12T07:37:37.446Z,1.20
2023-08-12T07:38:39.680Z,0.98
2023-08-12T07:40:43.756Z,1.20
2023-08-12T07:41:45.678Z,1.05
2023-08-12T07:42:47.581Z,1.23
2023-08-12T07:43:49.528Z,1.25
2023-08-12T07:44:52.286Z,1.05
2023-08-12T07:46:07.747Z,1.40
2023-08-12T07:47:12.112Z,1.30
2023-08-12T07:48:14.345Z,1.30
2023-08-12T07:49:17.942Z,1.35
2023-08-12T07:50:20.133Z,1.30
2023-08-12T07:51:22.071Z,1.10
2023-08-12T07:52:24.058Z,1.23
2023-08-12T07:53:27.158Z,1.20
2023-08-12T07:54:29.215Z,1.00
2023-08-12T07:55:31.198Z,1.00
2023-08-12T07:56:33.100Z,0.98
2023-08-12T07:57:35.244Z,1.23
2023-08-12T07:58:37.228Z,1.42
2023-08-12T07:59:39.272Z,1.02
2023-08-12T08:00:41.198Z,1.02
2023-08-12T08:01:43.164Z,0.80
2023-08-12T08:02:45.094Z,1.00
2023-08-12T08:03:47.498Z,1.10
2023-08-12T08:05:54.735Z,1.35
2023-08-12T08:10:04.614Z,1.00
2023-08-12T08:11:06.694Z,1.33
2023-08-12T08:12:10.229Z,1.10
2023-08-12T08:13:13.296Z,1.20
2023-08-12T08:14:15.235Z,0.90
2023-08-12T08:15:17.724Z,0.80
2023-08-12T08:23:38.458Z,0.90
2023-08-12T08:24:40.347Z,1.50
2023-08-12T08:25:42.489Z,1.42
2023-08-12T08:44:33.403Z,1.00
2023-08-12T08:45:35.854Z,1.10
2023-08-12T09:28:41.930Z,0.70
2023-08-12T09:29:43.899Z,0.90
2023-08-12T09:30:55.319Z,0.90
2023-08-12T09:32:19.303Z,1.35
2023-08-12T09:33:30.114Z,1.30
2023-08-12T09:34:32.560Z,1.08
2023-08-12T09:35:36.640Z,1.20
2023-08-12T09:36:38.603Z,1.00
2023-08-12T09:37:40.592Z,1.10
2023-08-12T09:38:42.871Z,0.80
2023-08-12T09:40:48.814Z,0.90
2023-08-12T09:41:52.429Z,1.00
2023-08-12T09:42:54.373Z,1.15
2023-08-12T09:43:58.456Z,0.95
2023-08-12T09:45:00.505Z,1.20
2023-08-12T09:46:04.378Z,0.90
2023-08-12T09:47:09.772Z,0.90
2023-08-12T09:48:12.472Z,1.10
2023-08-12T09:49:15.389Z,0.95
2023-08-12T09:50:17.636Z,1.08
2023-08-12T09:52:23.282Z,1.00
2023-08-12T10:17:43.090Z,1.00
2023-08-12T10:18:47.959Z,1.00
2023-08-12T15:09:11.253Z,1.38
2023-08-12T15:11:15.210Z,1.65
2023-08-12T15:13:19.665Z,1.33
2023-08-12T15:14:21.651Z,1.10
2023-08-12T15:16:25.400Z,1.33
2023-08-12T15:18:29.555Z,1.33
2023-08-12T15:19:31.685Z,1.40
2023-08-12T15:20:33.623Z,1.50
2023-08-12T15:22:37.534Z,1.35
2023-08-12T15:23:39.584Z,1.40
2023-08-12T15:25:46.861Z,1.48
2023-08-12T15:26:48.804Z,1.60
2023-08-12T15:28:53.066Z,1.35
2023-08-12T15:29:55.059Z,1.35
2023-08-12T15:30:57.071Z,1.33
2023-08-12T15:33:00.810Z,1.55
2023-08-12T15:34:02.792Z,1.50
2023-08-12T15:36:06.802Z,1.67
2023-08-12T15:38:10.865Z,1.50
2023-08-12T15:40:15.100Z,1.60
2023-08-12T15:41:18.284Z,1.48
2023-08-12T15:42:20.134Z,1.98
2023-08-12T15:43:22.103Z,1.45
2023-08-12T17:41:34.577Z,1.50
2023-08-12T17:42:36.644Z,1.40
2023-08-12T17:43:39.003Z,1.67
2023-08-12T17:44:41.328Z,1.27
2023-08-12T17:45:43.343Z,1.63
2023-08-12T17:46:45.726Z,1.30
2023-08-12T17:48:04.289Z,1.60
2023-08-12T17:49:06.274Z,1.65
2023-08-12T17:50:13.515Z,1.83
2023-08-12T17:51:16.482Z,2.25
2023-08-12T17:52:18.743Z,1.60
2023-08-12T18:23:26.299Z,2.13
2023-08-12T18:24:28.610Z,1.85
2023-08-12T18:26:32.446Z,2.90
2023-08-12T18:33:45.955Z,2.08
2023-08-12T18:34:47.984Z,2.03
2023-08-12T18:35:50.125Z,1.40
2023-08-12T18:36:52.220Z,2.10
2023-08-12T18:37:54.163Z,1.90
2023-08-12T18:38:56.139Z,1.88
2023-08-12T18:39:58.111Z,1.90
2023-08-12T18:41:00.137Z,1.85
2023-08-12T18:42:02.168Z,2.20
2023-08-12T18:43:04.498Z,1.92
2023-08-12T18:45:09.785Z,1.63
2023-08-12T18:48:18.066Z,2.00
2023-08-12T18:59:42.803Z,2.20
2023-08-12T19:00:44.820Z,2.25
2023-08-12T19:01:47.075Z,2.28
2023-08-12T19:03:51.172Z,1.60
2023-08-12T19:04:53.249Z,2.40
2023-08-12T19:06:02.091Z,2.40
2023-08-12T19:07:04.048Z,2.63
2023-08-12T19:08:06.176Z,3.95
2023-08-12T19:15:21.698Z,3.90
2023-08-12T19:16:23.720Z,2.88
2023-08-12T19:17:25.774Z,2.47
2023-08-12T19:18:27.830Z,3.20
2023-08-12T19:19:30.232Z,2.20
2023-08-12T19:20:32.380Z,1.80
2023-08-12T19:21:34.418Z,2.47
2023-08-12T19:22:36.343Z,1.73
2023-08-12T19:23:38.518Z,1.75
2023-08-12T19:24:41.013Z,2.05
2023-08-12T19:25:43.573Z,2.22
2023-08-12T19:26:46.122Z,2.28
2023-08-12T19:27:48.491Z,2.13
2023-08-12T19:28:51.121Z,2.20
2023-08-12T19:29:53.493Z,2.85
2023-08-12T19:30:56.181Z,2.67
2023-08-12T19:31:58.689Z,2.70
2023-08-12T19:33:02.143Z,2.40
2023-08-12T19:34:04.600Z,2.50
2023-08-12T19:36:09.061Z,2.58
2023-08-12T19:37:11.837Z,2.15
2023-08-12T19:38:15.280Z,2.67
2023-08-12T19:39:19.426Z,2.97
2023-08-12T19:40:22.292Z,2.35
2023-08-12T19:41:24.888Z,2.72
2023-08-12T19:42:27.785Z,1.92
2023-08-12T19:43:29.815Z,2.05
2023-08-12T19:44:32.751Z,2.60
2023-08-12T21:21:42.296Z,3.50
2023-08-12T21:22:46.421Z,3.90
2023-08-12T21:23:48.534Z,3.53
2023-08-12T21:24:52.413Z,3.58
2023-08-12T21:25:54.562Z,3.50
2023-08-12T21:26:56.584Z,3.95
2023-08-12T21:27:58.497Z,2.55
2023-08-12T21:29:00.390Z,2.75
2023-08-12T21:30:02.440Z,2.83
2023-08-12T21:31:04.487Z,2.85
2023-08-12T21:32:06.734Z,3.00
2023-08-12T21:33:08.732Z,3.67
2023-08-12T21:34:10.665Z,3.17
2023-08-12T21:35:12.970Z,3.70
2023-08-12T21:37:16.640Z,2.92
2023-08-12T21:38:18.684Z,3.38
2023-08-12T21:39:20.700Z,2.75
2023-08-12T21:40:23.115Z,3.03
2023-08-12T21:42:26.854Z,3.25
2023-08-12T21:43:28.910Z,3.50
2023-08-12T21:44:31.240Z,4.20
2023-08-12T21:45:33.332Z,3.70
2023-08-12T21:46:35.418Z,4.05
2023-08-12T21:47:37.546Z,3.40
2023-08-12T21:48:39.844Z,3.75
2023-08-12T21:50:43.730Z,3.97
2023-08-12T21:51:46.105Z,4.10
2023-08-12T21:52:48.084Z,3.40
2023-08-12T21:53:53.010Z,3.92
2023-08-12T21:54:54.907Z,3.67
2023-08-12T21:55:57.193Z,3.80
2023-08-12T21:58:01.315Z,3.85
2023-08-12T22:00:08.063Z,4.05
2023-08-12T22:01:10.125Z,3.75
2023-08-12T22:31:30.553Z,4.20
2023-08-12T22:32:33.175Z,4.43
2023-08-12T22:33:35.166Z,3.92
2023-08-12T22:34:37.168Z,4.10
2023-08-12T22:35:39.095Z,4.00
2023-08-12T22:36:42.025Z,3.90
2023-08-12T22:37:43.963Z,4.20
2023-08-12T22:38:48.345Z,4.07
2023-08-12T22:39:50.591Z,4.10
2023-08-12T22:41:54.692Z,3.80
2023-08-12T22:42:56.789Z,3.40
2023-08-12T22:43:58.959Z,4.55
2023-08-12T22:45:01.396Z,3.92
2023-08-12T22:46:03.446Z,3.88
2023-08-12T22:47:05.827Z,3.75
2023-08-12T22:49:10.091Z,3.92
2023-08-12T22:50:13.741Z,3.92
2023-08-12T22:51:15.927Z,3.83
2023-08-12T22:52:18.598Z,4.00
2023-08-12T22:53:20.658Z,3.83
2023-08-12T22:54:22.634Z,3.08
2023-08-12T22:55:24.623Z,3.28
2023-08-12T22:56:26.882Z,3.25
2023-08-12T22:57:28.882Z,3.55
2023-08-12T22:58:31.182Z,3.65
2023-08-12T23:00:35.293Z,3.10
2023-08-12T23:02:39.469Z,2.92
2023-08-12T23:03:41.475Z,3.45
2023-08-12T23:04:43.380Z,3.08
2023-08-12T23:05:47.211Z,3.35
2023-08-12T23:06:49.507Z,3.25
2023-08-12T23:08:53.372Z,2.80
2023-08-12T23:09:55.280Z,3.45
2023-08-12T23:10:57.443Z,3.05
2023-08-12T23:11:59.303Z,3.10
2023-08-12T23:13:02.099Z,2.63
2023-08-12T23:14:04.249Z,3.10
2023-08-12T23:15:08.472Z,3.17
2023-08-12T23:16:10.537Z,3.38
2023-08-12T23:17:12.646Z,2.72
2023-08-12T23:18:14.556Z,2.90
2023-08-12T23:19:16.531Z,3.33
2023-08-12T23:20:18.758Z,2.92
2023-08-12T23:21:20.756Z,3.30
2023-08-12T23:22:22.732Z,2.58
2023-08-12T23:23:24.855Z,3.58
2023-08-12T23:24:26.838Z,3.08
2023-08-12T23:25:28.808Z,2.97
2023-08-12T23:26:30.804Z,3.92
2023-08-12T23:27:32.862Z,3.20
2023-08-12T23:28:34.919Z,3.58
2023-08-12T23:29:36.830Z,3.53
2023-08-12T23:30:38.782Z,3.53
2023-08-12T23:31:40.871Z,3.33
2023-08-12T23:32:46.511Z,3.40
2023-08-12T23:33:48.455Z,2.90
2023-08-12T23:34:50.424Z,2.85
2023-08-12T23:35:52.633Z,3.13
2023-08-12T23:36:54.538Z,4.18
2023-08-12T23:37:56.582Z,4.93
2023-08-12T23:38:58.670Z,5.07
2023-08-12T23:40:00.746Z,4.50
2023-08-12T23:41:02.803Z,4.88
2023-08-12T23:42:05.074Z,4.53
2023-08-12T23:44:09.244Z,4.43
2023-08-12T23:46:13.881Z,3.75
2023-08-12T23:47:16.340Z,3.47
2023-08-12T23:48:18.875Z,3.33
2023-08-12T23:49:21.076Z,3.22
2023-08-12T23:50:23.293Z,3.47
2023-08-12T23:51:25.212Z,3.67
2023-08-12T23:52:27.617Z,3.67
2023-08-12T23:54:31.603Z,3.30
2023-08-12T23:55:33.725Z,3.25
2023-08-12T23:56:36.652Z,3.70
2023-08-12T23:57:38.826Z,4.10
2023-08-12T23:58:40.964Z,3.42
2023-08-12T23:59:42.913Z,3.90
